Time;durP1;ratioP1;P1;durP2;ratioP2;P2;SDS_P1;SDS_P2;PMS_P1;PMS_P2;Temp;Humidity;BMP_temperature;BMP_pressure;BME280_temperature;BME280_humidity;BME280_pressure;Samples;Min_cycle;Max_cycle;Signal;HPM_P1;HPM_P2
2021/06/08 00:10:15;;;;;;;19.98;18.08;;;16.60;99.90;;;17.64;100.00;100802.13;5044346;28;20220;-60
2021/06/08 00:13:26;;;;;;;22.85;20.55;;;16.50;99.90;;;17.72;100.00;100802.84;5048827;28;20475;-60
2021/06/08 00:16:38;;;;;;;23.30;21.30;;;16.50;99.90;;;17.80;100.00;100810.03;5046830;28;20999;-59
2021/06/08 00:19:49;;;;;;;24.40;22.20;;;16.50;99.90;;;17.71;100.00;100809.28;5048314;28;20670;-59
2021/06/08 00:23:00;;;;;;;24.25;21.85;;;16.50;99.90;;;17.70;100.00;100795.94;5048987;28;20487;-59
2021/06/08 00:26:13;;;;;;;23.63;21.50;;;16.50;99.90;;;17.56;100.00;100806.59;5048911;28;20441;-59
2021/06/08 00:29:24;;;;;;;23.90;21.63;;;16.40;99.90;;;17.51;100.00;100819.03;5048239;28;20664;-56
2021/06/08 00:32:36;;;;;;;24.17;21.50;;;16.40;99.90;;;17.49;100.00;100821.06;5029834;28;21176;-59
2021/06/08 00:35:47;;;;;;;25.15;22.75;;;16.40;99.90;;;17.42;100.00;100826.44;5047563;28;20594;-58
2021/06/08 00:38:58;;;;;;;24.65;22.38;;;16.30;99.90;;;17.36;100.00;100823.63;5047959;28;20569;-60
2021/06/08 00:42:11;;;;;;;26.23;23.77;;;16.30;99.90;;;17.33;100.00;100835.66;5048685;28;20385;-59
2021/06/08 00:45:23;;;;;;;27.55;24.95;;;16.20;99.90;;;17.27;100.00;100841.00;5034669;28;20569;-57
2021/06/08 00:48:34;;;;;;;27.75;25.15;;;16.20;99.90;;;17.19;100.00;100841.91;5048001;28;20217;-58
2021/06/08 00:51:55;;;;;;;26.75;24.23;;;16.20;99.90;;;17.16;100.00;100843.16;5048231;28;20209;-59
2021/06/08 00:55:17;;;;;;;29.88;27.05;;;16.10;99.90;;;17.16;100.00;100842.31;5015571;28;20247;-58
2021/06/08 00:58:42;;;;;;;29.40;26.48;;;16.00;99.90;;;17.17;100.00;100842.13;5047875;28;20240;-59
2021/06/08 01:01:59;;;;;;;30.08;27.17;;;16.00;99.90;;;17.14;100.00;100841.66;5028273;28;20795;-60
2021/06/08 01:05:10;;;;;;;30.83;27.98;;;15.90;99.90;;;17.08;100.00;100850.50;5051273;28;20522;-58
2021/06/08 01:08:34;;;;;;;30.33;27.40;;;15.90;99.90;;;17.04;100.00;100836.53;5046779;28;20236;-60
2021/06/08 01:11:45;;;;;;;32.22;29.02;;;15.90;99.90;;;17.01;100.00;100833.34;5047510;28;20213;-59
2021/06/08 01:14:58;;;;;;;30.88;28.00;;;15.80;99.90;;;16.97;100.00;100838.28;5047363;28;20840;-59
2021/06/08 01:18:09;;;;;;;32.00;28.77;;;15.80;99.90;;;16.99;100.00;100827.28;5048130;28;20252;-60
2021/06/08 01:21:33;;;;;;;31.58;28.27;;;15.80;99.90;;;17.00;100.00;100824.41;5047110;28;20715;-60
2021/06/08 01:24:44;;;;;;;33.08;29.77;;;15.70;99.90;;;17.02;100.00;100835.03;5048558;28;20830;-59
2021/06/08 01:27:57;;;;;;;33.20;29.98;;;15.70;99.90;;;17.04;100.00;100830.28;5047356;28;20623;-59
2021/06/08 01:31:12;;;;;;;34.47;30.98;;;15.70;99.90;;;17.02;100.00;100833.16;5048290;28;20237;-57
2021/06/08 01:34:23;;;;;;;35.33;31.83;;;15.70;99.90;;;16.98;100.00;100831.84;5047945;28;20408;-60
2021/06/08 01:37:37;;;;;;;36.58;32.67;;;15.70;99.90;;;16.92;100.00;100829.91;5047441;28;20536;-59
2021/06/08 01:40:49;;;;;;;35.17;31.75;;;15.70;99.90;;;16.95;100.00;100831.38;5033273;28;20820;-59
2021/06/08 01:44:01;;;;;;;35.03;31.60;;;15.70;99.90;;;16.88;100.00;100834.00;5047111;28;20939;-60
2021/06/08 01:47:12;;;;;;;36.25;32.63;;;15.60;99.90;;;16.83;100.00;100831.84;5047008;28;20441;-59
2021/06/08 01:58:25;;;;;;;35.65;32.08;;;15.50;99.90;;;16.79;100.00;100832.41;5046025;28;20275;-60
2021/06/08 02:01:40;;;;;;;37.08;33.08;;;15.50;99.90;;;16.83;100.00;100833.72;5032632;28;20561;-59
2021/06/08 02:04:55;;;;;;;37.22;33.50;;;15.50;99.90;;;16.86;100.00;100831.47;5047151;28;20910;-60
2021/06/08 02:08:19;;;;;;;36.63;33.03;;;15.50;99.90;;;16.82;100.00;100846.38;5047110;28;20392;-59
2021/06/08 02:11:48;;;;;;;33.17;29.88;;;15.40;99.90;;;16.76;100.00;100840.91;5027093;28;20633;-59
2021/06/08 02:15:06;;;;;;;37.00;33.15;;;15.40;99.90;;;16.72;100.00;100835.00;5027866;28;20339;-60
2021/06/08 02:18:19;;;;;;;34.38;30.95;;;15.40;99.90;;;16.55;100.00;100849.69;5050229;28;20340;-59
2021/06/08 02:21:33;;;;;;;36.63;32.80;;;15.40;99.90;;;16.60;100.00;100844.56;5051193;28;20201;-60
2021/06/08 02:24:48;;;;;;;36.05;32.30;;;15.40;99.90;;;16.64;100.00;100843.22;5050436;28;20480;-60
2021/06/08 02:28:16;;;;;;;36.35;32.72;;;15.30;99.90;;;16.52;100.00;100855.44;5050937;28;20817;-60
2021/06/08 02:35:35;;;;;;;36.45;32.72;;;15.30;99.90;;;16.64;100.00;100867.53;5040638;28;20600;-59
2021/06/08 02:38:49;;;;;;;37.60;33.70;;;15.20;99.90;;;16.63;100.00;100867.69;5050321;28;20499;-58
2021/06/08 02:42:00;;;;;;;36.97;33.03;;;15.20;99.90;;;16.58;100.00;100865.50;5050104;28;20240;-59
2021/06/08 02:45:15;;;;;;;36.20;32.50;;;15.20;99.90;;;16.68;100.00;100876.13;5050151;28;20551;-60
2021/06/08 02:48:28;;;;;;;37.83;33.70;;;15.10;99.90;;;16.55;100.00;100871.31;5049613;28;20238;-58
2021/06/08 02:51:41;;;;;;;35.65;31.80;;;15.10;99.90;;;16.55;100.00;100875.88;5050393;28;20456;-59
2021/06/08 02:54:53;;;;;;;39.20;33.88;;;15.10;99.90;;;16.57;100.00;100873.81;5049830;28;20333;-59
2021/06/08 02:58:05;;;;;;;35.22;31.50;;;15.10;99.90;;;16.63;100.00;100884.75;5050047;28;20718;-60
2021/06/08 03:01:18;;;;;;;39.07;33.03;;;15.10;99.90;;;16.49;100.00;100885.53;5035706;28;20267;-59
2021/06/08 03:04:31;;;;;;;36.08;32.08;;;15.10;99.90;;;16.48;100.00;100892.78;5051028;28;20999;-57
2021/06/08 03:07:45;;;;;;;82.25;38.03;;;15.10;99.90;;;16.67;100.00;100890.66;5048048;28;20235;-60
2021/06/08 03:10:58;;;;;;;35.03;31.35;;;15.10;99.90;;;16.64;100.00;100899.94;5069900;28;20446;-59
2021/06/08 03:14:11;;;;;;;35.92;31.73;;;15.10;99.90;;;16.44;100.00;100899.56;5050915;28;20586;-60
2021/06/08 03:21:02;;;;;;;35.70;30.55;;;15.10;99.90;;;16.51;100.00;100910.50;5032585;28;20225;-60
2021/06/08 03:24:19;;;;;;;38.13;32.85;;;15.10;99.90;;;16.63;100.00;100917.19;5069348;28;20891;-59
2021/06/08 03:30:58;;;;;;;35.00;31.27;;;15.10;99.90;;;16.54;100.00;100918.25;5056310;28;20597;-58
2021/06/08 03:34:29;;;;;;;35.55;31.27;;;15.10;99.90;;;16.57;100.00;100923.25;5069950;28;20224;-59
2021/06/08 03:37:41;;;;;;;34.95;31.15;;;15.20;99.90;;;16.58;100.00;100929.50;5069261;28;20228;-60
2021/06/08 03:40:53;;;;;;;34.28;30.65;;;15.20;99.90;;;16.58;100.00;100919.53;5049368;28;20721;-59
2021/06/08 03:44:05;;;;;;;32.83;29.10;;;15.30;99.90;;;16.58;100.00;100919.53;5056842;28;20791;-59
2021/06/08 03:47:16;;;;;;;34.45;29.95;;;15.30;99.90;;;16.64;100.00;100928.81;5069240;28;20558;-59
2021/06/08 03:50:45;;;;;;;34.60;30.45;;;15.40;99.90;;;16.69;100.00;100929.94;5068680;28;20212;-60
2021/06/08 03:54:36;;;;;;;38.83;34.15;;;15.50;99.90;;;16.76;100.00;100933.63;5064449;28;20825;-60
2021/06/08 03:57:50;;;;;;;78.30;36.53;;;15.60;99.90;;;16.81;100.00;100942.00;4999222;28;20756;-57
2021/06/08 04:01:04;;;;;;;59.95;34.35;;;15.70;99.90;;;16.76;100.00;100949.00;5069581;28;20217;-58
2021/06/08 04:04:16;;;;;;;39.80;32.30;;;15.70;99.90;;;17.01;100.00;100955.00;5069273;28;20224;-60
2021/06/08 04:07:29;;;;;;;36.40;30.83;;;15.80;99.90;;;16.87;100.00;100948.53;5069059;28;20262;-58
2021/06/08 04:10:54;;;;;;;35.95;29.95;;;15.90;99.90;;;17.03;100.00;100955.69;5070167;28;20553;-58
2021/06/08 04:14:05;;;;;;;36.72;29.70;;;16.00;99.90;;;17.06;100.00;100958.03;5069342;28;20658;-59
2021/06/08 04:20:47;;;;;;;33.70;29.35;;;16.20;99.90;;;17.10;100.00;100946.63;5049268;28;20523;-58
2021/06/08 04:24:24;;;;;;;32.10;28.40;;;16.30;99.90;;;17.20;100.00;100947.19;5056559;28;20230;-58
2021/06/08 04:27:39;;;;;;;32.13;28.02;;;16.40;99.90;;;17.28;100.00;100949.00;5047535;28;20228;-60
2021/06/08 04:30:51;;;;;;;32.53;27.92;;;16.40;99.90;;;17.36;100.00;100943.47;5055202;28;21109;-59
2021/06/08 04:34:08;;;;;;;31.52;28.17;;;16.50;99.90;;;17.48;100.00;100946.56;5068385;28;20532;-59
2021/06/08 04:37:44;;;;;;;30.25;26.80;;;16.60;99.90;;;17.55;100.00;100948.34;5068615;28;20954;-60
2021/06/08 04:41:00;;;;;;;29.35;26.17;;;16.70;99.90;;;17.52;100.00;100940.59;5039649;28;20352;-60
2021/06/08 04:44:11;;;;;;;30.63;26.63;;;16.80;99.90;;;17.63;100.00;100939.31;5064533;27;20530;-59
2021/06/08 04:47:29;;;;;;;29.45;24.88;;;16.90;99.90;;;17.64;100.00;100941.00;5081317;27;20497;-60
2021/06/08 04:50:52;;;;;;;30.02;26.50;;;17.00;99.90;;;17.69;100.00;100935.84;5077957;27;20515;-59
2021/06/08 04:54:04;;;;;;;29.23;25.33;;;17.10;99.90;;;17.77;100.00;100938.47;5075647;27;20540;-61
2021/06/08 04:57:16;;;;;;;27.70;24.83;;;17.20;99.90;;;17.89;100.00;100939.66;5059929;28;20313;-58
2021/06/08 05:00:33;;;;;;;27.10;24.02;;;17.30;99.90;;;17.95;100.00;100938.88;5067834;28;20598;-58
2021/06/08 05:03:48;;;;;;;28.10;24.60;;;17.40;99.90;;;18.00;100.00;100941.00;5047865;28;20248;-59
2021/06/08 05:07:04;;;;;;;27.63;24.55;;;17.40;99.90;;;17.98;100.00;100944.94;5047753;28;20205;-60
2021/06/08 05:10:18;;;;;;;26.67;23.77;;;17.50;99.90;;;18.14;100.00;100940.13;5066465;28;20327;-61
2021/06/08 05:13:34;;;;;;;27.88;24.80;;;17.50;99.90;;;18.16;100.00;100934.53;5068270;28;20252;-60
2021/06/08 05:16:46;;;;;;;29.38;25.33;;;17.60;99.90;;;18.20;100.00;100930.41;5068007;28;20200;-59
2021/06/08 05:19:59;;;;;;;25.55;22.95;;;17.70;99.90;;;18.29;100.00;100938.22;5067317;28;20231;-61
2021/06/08 05:26:53;;;;;;;27.85;24.35;;;17.90;99.90;;;18.37;100.00;100937.25;5019757;28;20225;-61
2021/06/08 05:34:03;;;;;;;26.58;23.95;;;18.10;99.90;;;18.29;100.00;100937.38;5030333;28;20711;-60
2021/06/08 05:40:53;;;;;;;27.85;24.85;;;18.20;99.90;;;18.53;100.00;100938.88;5046820;28;20263;-60
2021/06/08 05:44:31;;;;;;;26.85;23.83;;;18.20;99.90;;;18.54;100.00;100932.44;5066265;28;20502;-59
2021/06/08 05:47:42;;;;;;;26.17;23.48;;;18.30;99.90;;;18.51;100.00;100941.78;5067852;28;20405;-60
2021/06/08 05:50:56;;;;;;;28.20;25.30;;;18.40;99.90;;;18.53;100.00;100938.88;5069999;28;20734;-60
2021/06/08 05:54:08;;;;;;;28.48;25.40;;;18.40;99.90;;;18.70;100.00;100934.88;5070332;28;20220;-59
2021/06/08 05:57:20;;;;;;;26.83;24.02;;;18.40;99.90;;;18.78;100.00;100937.47;5070755;28;20256;-60
2021/06/08 06:00:32;;;;;;;27.75;24.98;;;18.40;99.90;;;18.69;100.00;100935.06;5070412;28;20224;-61
2021/06/08 06:03:46;;;;;;;27.92;25.15;;;18.40;99.90;;;18.59;100.00;100935.41;5070594;28;20526;-60
2021/06/08 06:06:59;;;;;;;25.65;23.13;;;18.40;99.90;;;19.34;100.00;100935.56;5070295;28;20623;-60
2021/06/08 06:10:10;;;;;;;25.90;23.17;;;18.50;99.90;;;19.46;100.00;100927.69;5070747;28;20228;-60
2021/06/08 06:13:23;;;;;;;25.70;22.95;;;18.70;99.90;;;19.94;100.00;100927.72;5070173;28;20460;-61
2021/06/08 06:16:51;;;;;;;25.45;22.88;;;19.00;99.90;;;20.07;100.00;100914.19;5071047;28;20241;-59
2021/06/08 06:20:03;;;;;;;24.35;21.90;;;19.40;99.90;;;20.43;100.00;100920.16;5073475;28;20514;-61
2021/06/08 06:23:16;;;;;;;24.48;22.05;;;19.70;99.90;;;19.88;100.00;100923.13;5070144;28;20572;-61
2021/06/08 06:26:28;;;;;;;26.08;23.48;;;20.00;99.90;;;19.93;100.00;100931.47;5069870;28;20691;-60
2021/06/08 06:29:54;;;;;;;25.77;23.15;;;20.10;99.90;;;19.82;100.00;100932.06;5069612;28;20201;-60
2021/06/08 06:33:05;;;;;;;25.95;23.23;;;20.10;99.90;;;19.94;100.00;100933.16;5070413;28;20217;-60
2021/06/08 06:36:16;;;;;;;25.95;23.45;;;20.10;99.90;;;20.28;100.00;100926.78;5070476;28;20490;-60
2021/06/08 06:39:35;;;;;;;24.35;21.95;;;20.10;99.90;;;20.26;100.00;100927.00;5070158;28;20220;-61
2021/06/08 06:42:50;;;;;;;22.23;20.10;;;20.20;99.90;;;20.59;100.00;100927.06;5069861;28;20675;-60
2021/06/08 06:46:03;;;;;;;22.05;19.77;;;20.20;99.90;;;20.87;100.00;100926.88;5050539;28;20295;-61
2021/06/08 06:49:14;;;;;;;23.48;20.80;;;20.40;99.90;;;21.60;100.00;100916.72;5067822;28;20204;-60
2021/06/08 06:52:26;;;;;;;21.88;19.10;;;20.70;99.90;;;21.22;100.00;100908.44;5069634;28;20745;-60
2021/06/08 06:55:40;;;;;;;20.83;18.75;;;21.00;99.90;;;21.91;100.00;100902.31;5069281;28;20826;-60
2021/06/08 06:58:52;;;;;;;20.25;18.25;;;21.40;99.90;;;21.87;100.00;100903.81;5070134;28;20690;-60
2021/06/08 07:02:04;;;;;;;20.40;18.45;;;21.70;99.90;;;22.08;100.00;100908.97;5069863;27;20216;-60
2021/06/08 07:05:16;;;;;;;21.48;19.48;;;22.00;99.90;;;22.16;100.00;100905.97;5070268;28;20570;-60
2021/06/08 07:08:41;;;;;;;18.63;16.70;;;22.30;99.90;;;22.79;100.00;100903.22;5057122;28;20241;-61
2021/06/08 07:12:05;;;;;;;19.60;17.75;;;22.60;99.90;;;22.10;100.00;100906.03;5050181;28;20320;-61
2021/06/08 07:15:17;;;;;;;17.90;16.13;;;23.00;99.90;;;22.40;100.00;100900.78;5049211;28;20593;-61
2021/06/08 07:18:29;;;;;;;18.95;17.23;;;23.10;99.80;;;22.53;100.00;100901.53;5049601;28;20704;-60
2021/06/08 07:21:41;;;;;;;17.45;15.63;;;23.20;98.90;;;23.27;100.00;100902.56;5049481;28;20515;-61
2021/06/08 07:25:16;;;;;;;18.67;16.95;;;23.40;98.00;;;22.65;100.00;100898.91;5049167;28;20213;-60
2021/06/08 07:28:31;;;;;;;18.17;16.48;;;23.70;96.90;;;23.35;100.00;100902.28;5028132;28;20236;-61
2021/06/08 07:31:52;;;;;;;18.73;16.83;;;24.10;96.00;;;23.30;100.00;100896.66;5049700;28;20688;-61
2021/06/08 07:35:08;;;;;;;16.48;14.90;;;24.20;94.10;;;24.05;100.00;100899.09;5049101;28;20487;-61
2021/06/08 07:38:25;;;;;;;17.95;16.25;;;24.30;94.10;;;23.37;100.00;100891.94;5049231;28;20524;-61
2021/06/08 07:41:40;;;;;;;18.58;16.70;;;24.60;92.60;;;23.17;100.00;100897.63;5049644;28;21040;-61
2021/06/08 07:45:00;;;;;;;17.85;16.15;;;24.70;91.50;;;23.37;100.00;100900.13;5049288;28;20687;-61
2021/06/08 07:48:26;;;;;;;16.75;15.07;;;24.80;91.00;;;23.82;100.00;100891.66;5029545;28;20684;-61
2021/06/08 07:51:37;;;;;;;15.57;14.07;;;24.90;90.40;;;23.62;100.00;100897.34;5049049;28;20685;-60
2021/06/08 07:54:49;;;;;;;15.75;14.15;;;25.10;88.30;;;24.10;100.00;100899.25;5048842;28;20534;-60
2021/06/08 07:58:03;;;;;;;17.25;15.45;;;25.30;86.20;;;23.33;100.00;100906.28;5048158;28;20597;-60
2021/06/08 08:01:20;;;;;;;16.63;14.93;;;25.50;83.90;;;23.27;100.00;100897.94;5048678;28;20217;-62
2021/06/08 08:04:37;;;;;;;16.27;14.73;;;25.60;83.70;;;23.55;100.00;100897.44;5048614;28;20611;-61
2021/06/08 08:07:49;;;;;;;16.52;14.93;;;25.80;81.30;;;23.51;100.00;100896.22;5048106;28;20796;-62
2021/06/08 08:11:00;;;;;;;15.52;13.50;;;25.90;78.90;;;24.15;100.00;100892.00;5049298;28;20322;-61
2021/06/08 08:14:13;;;;;;;14.63;13.32;;;26.10;78.20;;;25.17;100.00;100886.38;5047847;28;20627;-59
2021/06/08 08:17:26;;;;;;;16.38;14.77;;;26.30;77.30;;;24.41;100.00;100888.06;5048887;28;20640;-61
2021/06/08 08:20:52;;;;;;;14.43;13.05;;;26.70;74.40;;;24.74;100.00;100895.72;5029922;28;20612;-61
2021/06/08 08:24:37;;;;;;;13.38;12.05;;;27.00;72.50;;;24.41;100.00;100889.97;5048204;28;20455;-62
2021/06/08 08:27:48;;;;;;;14.40;12.90;;;27.10;68.00;;;24.62;100.00;100895.72;4990099;28;20625;-62
2021/06/08 08:30:59;;;;;;;13.55;12.15;;;27.10;68.30;;;25.39;100.00;100892.88;5028417;28;20955;-61
2021/06/08 08:34:13;;;;;;;12.82;11.63;;;27.10;67.40;;;25.98;100.00;100897.16;5042313;28;20216;-62
2021/06/08 08:38:14;;;;;;;13.70;12.35;;;27.20;67.30;;;26.36;100.00;100891.03;5047625;28;20643;-62
2021/06/08 08:41:26;;;;;;;14.52;13.07;;;27.60;67.00;;;26.26;100.00;100888.06;4948691;28;20270;-61
2021/06/08 08:44:37;;;;;;;15.23;13.52;;;27.90;63.80;;;25.07;100.00;100888.88;4973670;28;20409;-60
2021/06/08 08:47:49;;;;;;;14.90;13.57;;;28.10;61.70;;;25.21;100.00;100890.31;5036598;28;20217;-62
2021/06/08 08:51:14;;;;;;;15.73;13.93;;;28.20;59.70;;;25.38;100.00;100880.25;5048228;28;20243;-61
2021/06/08 08:54:27;;;;;;;15.95;14.40;;;28.30;59.40;;;25.97;100.00;100880.94;5048571;28;20510;-62
2021/06/08 08:57:39;;;;;;;14.52;13.13;;;28.30;59.30;;;26.47;100.00;100873.66;5047812;28;20238;-61
2021/06/08 09:04:09;;;;;;;15.77;14.15;;;28.50;59.50;;;26.12;100.00;100870.25;5047582;28;20244;-62
2021/06/08 09:07:23;;;;;;;15.85;14.25;;;28.60;58.20;;;25.81;100.00;100870.78;5028253;28;20332;-62
2021/06/08 09:10:35;;;;;;;16.33;14.65;;;28.60;58.00;;;25.68;100.00;100869.16;5047991;28;20534;-61
2021/06/08 09:13:46;;;;;;;13.27;12.18;;;28.60;57.70;;;26.46;100.00;100866.50;5048259;28;20513;-61
2021/06/08 09:16:57;;;;;;;15.73;14.20;;;28.50;57.90;;;26.70;100.00;100867.19;5046399;28;20251;-62
2021/06/08 09:20:10;;;;;;;14.93;13.52;;;28.50;57.70;;;25.80;100.00;100866.38;5043229;28;20717;-61
2021/06/08 09:23:32;;;;;;;15.07;13.82;;;28.60;57.40;;;25.57;100.00;100861.78;5047745;28;21080;-62
2021/06/08 09:26:45;;;;;;;15.05;13.85;;;28.70;56.20;;;26.36;100.00;100860.84;5053287;28;20680;-62
2021/06/08 09:30:13;;;;;;;16.98;14.57;;;28.60;57.00;;;26.68;100.00;100852.88;5031505;28;20923;-61
2021/06/08 09:33:45;;;;;;;13.07;11.77;;;28.50;56.80;;;26.66;100.00;100848.72;5042083;28;20466;-62
2021/06/08 09:36:56;;;;;;;12.75;11.65;;;28.50;56.70;;;27.78;100.00;100853.88;5028777;28;20815;-61
2021/06/08 09:40:23;;;;;;;13.82;12.35;;;28.60;56.90;;;27.82;100.00;100857.75;5051630;28;20232;-61
2021/06/08 09:43:46;;;;;;;13.23;11.95;;;29.00;56.60;;;27.04;100.00;100854.28;5051092;28;20681;-62
2021/06/08 09:47:05;;;;;;;15.25;13.55;;;29.40;55.40;;;27.00;100.00;100844.03;5027720;28;20526;-62
2021/06/08 09:50:42;;;;;;;14.82;13.52;;;29.50;54.70;;;26.98;100.00;100841.53;5038772;28;20468;-61
2021/06/08 09:54:06;;;;;;;12.80;11.48;;;29.60;54.00;;;27.82;100.00;100850.31;5051327;28;20528;-61
2021/06/08 10:01:39;;;;;;;11.18;10.13;;;30.00;52.10;;;27.99;100.00;100841.97;5028677;28;20293;-61
2021/06/08 10:04:50;;;;;;;12.13;11.00;;;30.20;50.70;;;28.23;100.00;100846.09;5046794;28;20990;-61
2021/06/08 10:08:02;;;;;;;12.77;11.57;;;30.50;50.50;;;28.76;100.00;100833.31;5050597;28;20703;-62
2021/06/08 10:11:14;;;;;;;11.15;10.20;;;30.90;50.00;;;29.32;100.00;100830.88;5051138;28;20279;-61
2021/06/08 10:14:37;;;;;;;11.63;10.43;;;31.20;49.70;;;28.27;100.00;100834.56;5050847;28;20327;-61
2021/06/08 10:17:55;;;;;;;10.55;9.63;;;31.60;48.30;;;28.82;100.00;100836.94;5050146;28;20252;-62
2021/06/08 10:21:08;;;;;;;10.65;9.63;;;31.90;47.10;;;29.38;100.00;100826.28;5051155;28;20680;-62
2021/06/08 10:24:30;;;;;;;9.40;8.68;;;32.10;46.50;;;28.93;100.00;100831.22;5050308;28;20209;-62
2021/06/08 10:31:35;;;;;;;8.93;8.18;;;32.80;44.10;;;29.40;100.00;100821.31;5048744;28;20538;-62
2021/06/08 10:38:16;;;;;;;9.75;8.85;;;33.20;42.80;;;27.46;100.00;100816.06;5048677;28;20508;-61
2021/06/08 10:41:28;;;;;;;8.88;8.15;;;33.20;41.30;;;28.00;100.00;100813.38;5050345;28;20642;-62
2021/06/08 10:44:46;;;;;;;10.02;8.63;;;33.20;41.50;;;29.67;100.00;100807.34;5050149;28;20209;-62
2021/06/08 10:48:04;;;;;;;9.32;8.52;;;33.30;41.90;;;28.87;100.00;100810.28;5049213;28;20497;-62
2021/06/08 10:51:33;;;;;;;8.75;7.90;;;33.60;41.30;;;28.94;100.00;100810.03;5049645;28;20552;-61
2021/06/08 10:54:46;;;;;;;9.48;8.63;;;33.60;40.40;;;28.11;100.00;100811.56;5050103;28;20196;-62
2021/06/08 10:58:09;;;;;;;9.23;8.32;;;33.60;40.20;;;28.11;100.00;100806.06;5030967;28;20225;-61
2021/06/08 11:01:27;;;;;;;8.68;7.95;;;33.90;39.50;;;28.40;100.00;100801.94;5049549;28;20963;-62
2021/06/08 11:04:45;;;;;;;7.72;6.97;;;34.10;39.00;;;30.04;100.00;100799.72;5049932;28;20568;-63
2021/06/08 11:08:16;;;;;;;7.47;6.82;;;34.40;38.50;;;29.74;100.00;100800.47;5056684;28;20271;-62
2021/06/08 11:15:22;;;;;;;7.82;7.00;;;34.80;37.00;;;29.56;100.00;100795.44;5050412;28;20849;-62
2021/06/08 11:18:57;;;;;;;8.30;7.70;;;34.90;36.80;;;30.42;100.00;100791.97;5045859;28;20271;-62
2021/06/08 11:22:24;;;;;;;8.07;7.38;;;35.00;37.00;;;30.23;100.00;100786.19;5052295;28;20536;-60
2021/06/08 11:25:58;;;;;;;7.35;6.63;;;35.30;36.90;;;30.41;100.00;100782.88;5069263;28;20530;-61
2021/06/08 11:36:23;;;;;;;7.00;5.82;;;35.50;35.40;;;29.98;100.00;100782.31;5069563;28;20613;-62
2021/06/08 11:39:57;;;;;;;7.72;5.97;;;35.10;36.00;;;30.76;100.00;100773.72;5057644;28;20507;-62
2021/06/08 11:43:10;;;;;;;6.65;6.10;;;34.90;36.30;;;30.60;100.00;100774.88;5043767;28;20875;-62
2021/06/08 11:46:31;;;;;;;6.57;6.00;;;35.10;37.00;;;30.82;100.00;100774.53;5069313;27;20490;-61
2021/06/08 11:49:42;;;;;;;7.07;6.50;;;35.50;36.00;;;31.11;100.00;100772.81;5069531;28;20933;-62
2021/06/08 11:52:59;;;;;;;7.88;7.15;;;35.80;35.20;;;29.80;100.00;100763.50;5069239;28;20255;-62
2021/06/08 11:56:28;;;;;;;7.05;6.35;;;36.20;34.50;;;30.54;100.00;100760.22;5080116;28;20223;-63
2021/06/08 12:00:02;;;;;;;6.60;5.93;;;36.50;34.30;;;31.29;100.00;100760.28;5048502;28;20641;-62
2021/06/08 12:03:15;;;;;;;6.55;6.03;;;36.70;33.90;;;31.11;100.00;100755.41;5067293;28;20668;-62
2021/06/08 12:06:26;;;;;;;7.07;6.55;;;37.10;33.20;;;31.28;100.00;100750.34;5069781;28;20220;-62
2021/06/08 12:09:40;;;;;;;6.43;5.82;;;37.40;33.10;;;30.38;100.00;100742.00;5049284;28;20614;-62
2021/06/08 12:12:53;;;;;;;6.65;6.15;;;37.20;32.60;;;30.83;100.00;100751.31;5048526;28;20648;-62
2021/06/08 12:16:07;;;;;;;7.70;7.00;;;36.90;33.70;;;29.59;100.00;100756.28;5048563;28;20217;-62
2021/06/08 12:19:24;;;;;;;7.57;6.97;;;36.20;36.50;;;29.83;100.00;100754.69;5048439;28;20621;-62
2021/06/08 12:22:49;;;;;;;7.65;6.95;;;35.50;36.60;;;29.05;100.00;100755.84;5048085;28;20816;-62
2021/06/08 12:26:01;;;;;;;7.80;6.75;;;34.70;36.80;;;29.91;100.00;100743.13;5043386;28;20220;-62
2021/06/08 12:29:29;;;;;;;6.90;6.30;;;34.20;37.90;;;31.01;100.00;100734.13;5046338;28;20388;-62
2021/06/08 12:32:43;;;;;;;7.18;6.57;;;34.30;37.60;;;30.45;100.00;100727.91;5048554;28;20348;-61
2021/06/08 12:36:04;;;;;;;6.88;6.25;;;34.70;35.60;;;29.90;100.00;100721.31;5047267;28;20208;-62
2021/06/08 12:39:19;;;;;;;6.75;6.25;;;35.00;34.60;;;31.13;100.00;100720.03;5048270;28;20749;-62
2021/06/08 12:42:36;;;;;;;6.95;6.32;;;35.40;35.10;;;31.46;100.00;100715.69;5048402;28;20260;-62
2021/06/08 12:45:48;;;;;;;6.80;6.20;;;36.00;33.90;;;29.91;100.00;100712.78;5048437;28;20914;-62
2021/06/08 12:49:07;;;;;;;6.10;5.60;;;36.50;33.00;;;31.43;94.88;100712.38;5047820;28;20817;-62
2021/06/08 12:52:22;;;;;;;5.70;5.20;;;36.70;32.30;;;32.09;88.21;100703.59;5047899;28;20535;-63
2021/06/08 12:55:39;;;;;;;6.28;5.68;;;37.00;32.10;;;30.43;96.53;100697.81;5047878;28;20236;-62
2021/06/08 12:58:52;;;;;;;6.65;6.00;;;37.20;31.00;;;31.17;92.46;100691.50;5046851;28;20331;-62
2021/06/08 13:02:03;;;;;;;6.38;5.88;;;37.20;31.10;;;31.01;94.90;100687.97;5048298;28;20870;-63
2021/06/08 13:05:20;;;;;;;6.97;6.28;;;37.20;31.20;;;30.32;100.00;100694.25;5047364;28;20406;-62
2021/06/08 13:08:35;;;;;;;6.80;6.05;;;36.80;31.20;;;31.26;100.00;100692.59;5046935;28;20240;-63
2021/06/08 13:11:55;;;;;;;6.28;5.78;;;36.40;32.20;;;30.97;87.85;100684.13;5042290;28;20215;-61
2021/06/08 13:15:19;;;;;;;6.38;5.78;;;36.20;31.70;;;32.13;89.93;100682.53;5047810;28;20239;-61
2021/06/08 13:18:32;;;;;;;8.25;6.05;;;36.10;32.00;;;30.77;84.47;100678.72;5047311;28;20250;-61
2021/06/08 13:21:57;;;;;;;7.07;6.18;;;36.10;31.30;;;31.62;88.01;100679.34;5048429;28;20226;-61
2021/06/08 13:25:10;;;;;;;6.90;6.25;;;36.00;31.60;;;31.40;95.67;100687.25;5048091;28;20237;-62
2021/06/08 13:28:22;;;;;;;6.97;6.45;;;36.10;32.40;;;30.96;100.00;100685.25;5045357;28;20239;-61
2021/06/08 13:31:57;;;;;;;6.50;5.90;;;36.10;33.10;;;30.98;100.00;100684.94;5047487;28;20231;-61
2021/06/08 13:35:28;;;;;;;6.10;5.60;;;36.10;33.50;;;31.00;96.44;100686.34;5048307;28;20393;-61
2021/06/08 13:38:41;;;;;;;5.75;4.72;;;36.00;33.10;;;31.01;91.15;100681.63;5047513;28;20224;-61
2021/06/08 13:41:58;;;;;;;5.30;4.80;;;36.00;32.10;;;30.70;88.66;100680.91;5047704;28;20241;-61
2021/06/08 13:45:39;;;;;;;5.30;4.90;;;35.90;31.30;;;30.65;85.00;100686.50;5047786;28;20575;-61
2021/06/08 13:49:10;;;;;;;5.57;5.18;;;35.60;31.00;;;30.59;87.38;100682.91;5031636;28;20236;-60
2021/06/08 13:52:21;;;;;;;5.68;5.28;;;35.40;31.50;;;29.98;95.98;100679.41;5047416;28;20263;-61
2021/06/08 14:02:58;;;;;;;6.30;5.40;;;34.40;33.10;;;30.76;92.34;100676.22;5012545;28;20502;-61
2021/06/08 14:06:22;;;;;;;5.80;5.28;;;34.20;33.80;;;30.99;91.93;100681.91;5048040;28;20314;-61
2021/06/08 14:09:51;;;;;;;6.18;5.68;;;34.30;33.70;;;31.22;86.74;100676.84;5068058;28;20366;-61
2021/06/08 14:13:38;;;;;;;6.18;5.68;;;34.50;33.50;;;31.62;83.78;100667.44;5071381;28;20495;-60
2021/06/08 14:17:04;;;;;;;6.88;5.68;;;34.80;33.00;;;31.56;84.52;100661.13;5070701;28;20225;-62
2021/06/08 14:20:18;;;;;;;6.93;6.32;;;35.10;32.80;;;30.48;85.88;100663.84;5068658;28;20239;-61
2021/06/08 14:23:29;;;;;;;6.43;5.93;;;35.30;31.80;;;31.54;83.39;100660.56;5071019;28;20227;-62
2021/06/08 14:30:18;;;;;;;5.75;5.25;;;35.60;31.90;;;31.22;90.41;100650.03;5057487;28;20325;-62
2021/06/08 14:33:31;;;;;;;6.97;5.88;;;35.60;31.80;;;31.70;94.02;100648.31;5071354;28;20482;-61
2021/06/08 14:36:42;;;;;;;6.72;6.05;;;35.60;32.60;;;32.07;83.98;100642.16;5070623;27;20621;-62
2021/06/08 14:39:54;;;;;;;6.38;5.82;;;35.60;32.20;;;31.42;87.50;100633.28;5050378;28;20227;-61